Wetterdaten: Woche 19.12.16 - 25.12.16 (KW51)
Datum Zeit Temp. A. Feuchte A. Luftdruck Regen Wind Richtung Taupunkt Windchill Windben
19.12.2016 00:00 0,1 C 84 % 1033,6 hPa 0,0 l/m 0,0 km/h N -2,2 C 0,1 C 0,8 km/h
19.12.2016 01:00 0,0 C 84 % 1033,8 hPa 0,0 l/m 0,0 km/h N -2,4 C 0,0 C 1,6 km/h
19.12.2016 02:00 -0,1 C 84 % 1033,9 hPa 0,0 l/m 0,0 km/h N -2,5 C -0,1 C 0,8 km/h
19.12.2016 03:00 -0,2 C 84 % 1034,1 hPa 0,0 l/m 0,0 km/h N -2,6 C -0,2 C 0,8 km/h
19.12.2016 04:00 -0,3 C 84 % 1034,3 hPa 0,0 l/m 0,0 km/h N -2,6 C -0,3 C 0,8 km/h
19.12.2016 05:00 -0,3 C 84 % 1034,6 hPa 0,0 l/m 0,0 km/h N -2,7 C -0,3 C 1,6 km/h
19.12.2016 06:00 -0,3 C 84 % 1034,8 hPa 0,0 l/m 0,1 km/h N -2,7 C -0,3 C 2,4 km/h
19.12.2016 07:00 -0,4 C 84 % 1035,1 hPa 0,0 l/m 0,0 km/h N -2,8 C -0,4 C 1,2 km/h
19.12.2016 08:00 -0,4 C 84 % 1035,1 hPa 0,0 l/m 0,1 km/h N -2,7 C -0,4 C 2,8 km/h
19.12.2016 09:00 -0,2 C 84 % 1035,4 hPa 0,0 l/m 0,0 km/h N -2,5 C -0,2 C 1,6 km/h
19.12.2016 10:00 0,1 C 84 % 1035,3 hPa 0,3 l/m 0,0 km/h N -2,3 C 0,1 C 2,0 km/h
19.12.2016 11:00 0,3 C 84 % 1034,9 hPa 0,0 l/m 0,1 km/h N -2,0 C 0,3 C 4,4 km/h
19.12.2016 12:00 0,5 C 84 % 1034,6 hPa 0,0 l/m 0,1 km/h N -1,9 C 0,5 C 2,8 km/h
19.12.2016 13:00 0,7 C 84 % 1034,3 hPa 0,0 l/m 0,6 km/h N -1,7 C 0,7 C 6,4 km/h
19.12.2016 14:00 0,6 C 84 % 1033,9 hPa 0,3 l/m 0,8 km/h N -1,7 C 0,6 C 8,1 km/h
19.12.2016 15:00 0,4 C 84 % 1033,7 hPa 0,0 l/m 0,6 km/h N -2,0 C 0,4 C 5,6 km/h
19.12.2016 16:00 0,1 C 84 % 1033,8 hPa 0,0 l/m 1,0 km/h N -2,3 C 0,1 C 9,7 km/h
19.12.2016 17:00 -0,2 C 84 % 1033,7 hPa 0,0 l/m 1,3 km/h N -2,5 C -0,2 C 10,5 km/h
19.12.2016 18:00 -0,2 C 84 % 1033,4 hPa 0,0 l/m 1,2 km/h N -2,6 C -0,2 C 7,6 km/h
19.12.2016 19:00 -0,2 C 84 % 1033,1 hPa 0,0 l/m 1,0 km/h N -2,5 C -0,2 C 6,0 km/h
19.12.2016 20:00 -0,3 C 84 % 1032,9 hPa 0,0 l/m 0,8 km/h N -2,7 C -0,3 C 6,8 km/h
19.12.2016 21:00 -0,5 C 84 % 1032,8 hPa 0,0 l/m 0,7 km/h N -2,9 C -0,5 C 6,4 km/h
19.12.2016 22:00 -0,6 C 84 % 1032,6 hPa 0,0 l/m 1,2 km/h N -3,0 C -0,6 C 9,7 km/h
19.12.2016 23:00 -0,7 C 84 % 1032,3 hPa 0,0 l/m 1,4 km/h N -3,1 C -0,7 C 6,8 km/h
20.12.2016 00:00 -0,9 C 84 % 1032,3 hPa 0,0 l/m 0,8 km/h N -3,2 C -0,9 C 8,5 km/h
20.12.2016 01:00 -0,9 C 84 % 1032,4 hPa 0,0 l/m 0,5 km/h N -3,3 C -0,9 C 7,6 km/h
20.12.2016 02:00 -1,2 C 84 % 1032,6 hPa 0,0 l/m 1,2 km/h N -3,5 C -1,2 C 11,7 km/h
20.12.2016 03:00 -1,3 C 84 % 1032,2 hPa 0,0 l/m 1,0 km/h N -3,6 C -1,3 C 8,9 km/h
20.12.2016 04:00 -1,3 C 84 % 1031,7 hPa 0,0 l/m 0,4 km/h N -3,6 C -1,3 C 6,0 km/h
20.12.2016 05:00 -1,4 C 84 % 1031,8 hPa 0,0 l/m 0,7 km/h N -3,7 C -1,4 C 10,9 km/h
20.12.2016 06:00 -1,5 C 84 % 1032,1 hPa 0,0 l/m 1,2 km/h N -3,8 C -1,5 C 9,3 km/h
20.12.2016 07:00 -1,8 C 84 % 1032,3 hPa 0,0 l/m 1,8 km/h N -4,1 C -1,8 C 11,7 km/h
20.12.2016 08:00 -2,2 C 84 % 1032,8 hPa 0,0 l/m 0,8 km/h N -4,6 C -2,2 C 9,3 km/h
20.12.2016 09:00 -2,5 C 84 % 1032,9 hPa 0,0 l/m 1,0 km/h N -4,8 C -2,5 C 12,5 km/h
20.12.2016 10:00 -2,5 C 84 % 1032,8 hPa 0,0 l/m 1,2 km/h N -4,8 C -2,5 C 12,1 km/h
20.12.2016 11:00 -2,3 C 84 % 1032,2 hPa 0,0 l/m 0,9 km/h N -4,6 C -2,3 C 8,4 km/h
20.12.2016 12:00 -2,0 C 84 % 1031,7 hPa 0,0 l/m 1,4 km/h N -4,4 C -2,0 C 9,3 km/h
20.12.2016 13:00 -2,2 C 84 % 1031,4 hPa 0,0 l/m 1,6 km/h N -4,5 C -2,2 C 9,6 km/h
20.12.2016 14:00 -2,3 C 84 % 1031,5 hPa 0,0 l/m 1,1 km/h N -4,6 C -2,3 C 7,6 km/h
20.12.2016 15:00 -2,4 C 84 % 1031,6 hPa 0,0 l/m 1,7 km/h N -4,7 C -2,4 C 12,1 km/h
20.12.2016 16:00 -2,6 C 84 % 1031,6 hPa 0,0 l/m 1,3 km/h N -4,9 C -2,6 C 10,1 km/h
20.12.2016 17:00 -2,8 C 84 % 1031,4 hPa 0,0 l/m 1,7 km/h N -5,1 C -2,8 C 12,9 km/h
20.12.2016 18:00 -2,9 C 84 % 1031,2 hPa 0,0 l/m 1,0 km/h N -5,2 C -2,9 C 10,1 km/h
20.12.2016 19:00 -2,9 C 84 % 1031,4 hPa 0,0 l/m 1,6 km/h N -5,2 C -2,9 C 12,1 km/h
20.12.2016 20:00 -3,1 C 84 % 1031,5 hPa 0,0 l/m 1,8 km/h N -5,4 C -3,1 C 10,5 km/h
20.12.2016 21:00 -3,1 C 84 % 1031,7 hPa 0,0 l/m 1,0 km/h N -5,4 C -3,1 C 10,9 km/h
20.12.2016 22:00 -3,2 C 84 % 1032,1 hPa 0,0 l/m 1,3 km/h N -5,5 C -3,2 C 10,5 km/h
20.12.2016 23:00 -3,3 C 84 % 1032,0 hPa 0,0 l/m 2,2 km/h N -5,6 C -3,3 C 11,7 km/h
21.12.2016 00:00 -3,4 C 84 % 1032,3 hPa 0,0 l/m 3,1 km/h N -5,7 C -3,4 C 13,7 km/h
21.12.2016 01:00 -3,6 C 84 % 1032,4 hPa 0,0 l/m 2,8 km/h N -5,9 C -3,6 C 12,9 km/h
21.12.2016 02:00 -3,6 C 84 % 1032,6 hPa 0,0 l/m 3,7 km/h N -5,9 C -3,6 C 11,7 km/h
21.12.2016 03:00 -3,6 C 84 % 1032,7 hPa 0,0 l/m 1,8 km/h N -5,9 C -3,6 C 10,9 km/h
21.12.2016 04:00 -3,6 C 84 % 1032,8 hPa 0,0 l/m 1,5 km/h N -5,9 C -3,6 C 9,7 km/h
21.12.2016 05:00 -3,7 C 84 % 1032,9 hPa 0,0 l/m 0,8 km/h N -6,0 C -3,7 C 8,0 km/h
21.12.2016 06:00 -3,7 C 84 % 1033,2 hPa 0,0 l/m 0,3 km/h N -6,0 C -3,7 C 6,8 km/h
21.12.2016 07:00 -3,7 C 84 % 1033,4 hPa 0,0 l/m 0,9 km/h N -6,0 C -3,7 C 6,8 km/h
21.12.2016 08:00 -3,7 C 84 % 1033,9 hPa 0,0 l/m 1,4 km/h N -5,9 C -3,7 C 8,0 km/h
21.12.2016 09:00 -3,7 C 84 % 1034,2 hPa 0,0 l/m 1,6 km/h N -5,9 C -3,7 C 12,1 km/h
21.12.2016 10:00 -3,3 C 84 % 1034,6 hPa 0,0 l/m 1,5 km/h N -5,6 C -3,3 C 8,9 km/h
21.12.2016 11:00 -3,2 C 84 % 1034,6 hPa 0,0 l/m 1,0 km/h N -5,5 C -3,2 C 11,7 km/h
21.12.2016 12:00 -3,2 C 84 % 1034,3 hPa 0,0 l/m 1,0 km/h N -5,5 C -3,2 C 10,9 km/h
21.12.2016 13:00 -3,1 C 84 % 1034,1 hPa 0,0 l/m 1,8 km/h N -5,4 C -3,1 C 10,1 km/h
21.12.2016 14:00 -3,1 C 84 % 1034,2 hPa 0,0 l/m 1,8 km/h N -5,4 C -3,1 C 7,6 km/h
21.12.2016 15:00 -3,1 C 84 % 1034,5 hPa 0,0 l/m 0,5 km/h N -5,4 C -3,1 C 6,4 km/h
21.12.2016 16:00 -3,1 C 84 % 1034,9 hPa 0,0 l/m 0,3 km/h N -5,4 C -3,1 C 6,8 km/h
21.12.2016 17:00 -3,1 C 84 % 1035,5 hPa 0,0 l/m 0,2 km/h N -5,4 C -3,1 C 4,0 km/h
21.12.2016 18:00 -3,1 C 84 % 1035,7 hPa 0,0 l/m 0,2 km/h N -5,4 C -3,1 C 2,4 km/h
21.12.2016 19:00 -3,1 C 84 % 1035,8 hPa 0,0 l/m 0,1 km/h N -5,4 C -3,1 C 4,8 km/h
21.12.2016 20:00 -3,2 C 84 % 1036,1 hPa 0,0 l/m 0,1 km/h N -5,5 C -3,2 C 2,4 km/h
21.12.2016 21:00 -3,2 C 84 % 1036,1 hPa 0,0 l/m 0,1 km/h N -5,5 C -3,2 C 2,4 km/h
21.12.2016 22:00 -3,2 C 84 % 1036,3 hPa 0,0 l/m 0,2 km/h N -5,5 C -3,2 C 4,0 km/h
21.12.2016 23:00 -3,3 C 84 % 1036,4 hPa 0,0 l/m 0,1 km/h N -5,6 C -3,3 C 4,0 km/h
22.12.2016 00:00 -3,3 C 84 % 1036,0 hPa 0,0 l/m 0,0 km/h N -5,6 C -3,3 C 0,8 km/h
22.12.2016 01:00 -3,3 C 84 % 1035,8 hPa 0,0 l/m 0,0 km/h N -5,6 C -3,3 C 0,0 km/h
22.12.2016 02:00 -3,3 C 84 % 1035,8 hPa 0,0 l/m 0,0 km/h N -5,6 C -3,3 C 1,6 km/h
22.12.2016 03:00 -3,4 C 84 % 1035,5 hPa 0,0 l/m 0,1 km/h N -5,7 C -3,4 C 2,8 km/h
22.12.2016 04:00 -3,4 C 84 % 1035,6 hPa 0,0 l/m 0,0 km/h N -5,7 C -3,4 C 2,0 km/h
22.12.2016 05:00 -3,6 C 84 % 1035,5 hPa 0,0 l/m 0,0 km/h N -5,9 C -3,6 C 1,6 km/h
22.12.2016 06:00 -3,6 C 84 % 1035,8 hPa 0,0 l/m 0,2 km/h N -5,9 C -3,6 C 5,2 km/h
22.12.2016 07:00 -3,6 C 84 % 1036,2 hPa 0,0 l/m 0,1 km/h N -5,9 C -3,6 C 1,6 km/h
22.12.2016 08:00 -3,6 C 84 % 1036,6 hPa 0,0 l/m 0,0 km/h N -5,9 C -3,6 C 2,0 km/h
22.12.2016 09:00 -3,6 C 84 % 1037,0 hPa 0,0 l/m 0,0 km/h N -5,9 C -3,6 C 1,2 km/h
22.12.2016 10:00 -3,4 C 84 % 1036,8 hPa 0,0 l/m 0,0 km/h N -5,7 C -3,4 C 0,0 km/h
22.12.2016 11:00 -3,2 C 84 % 1036,3 hPa 0,0 l/m 0,0 km/h N -5,5 C -3,2 C 0,8 km/h
22.12.2016 12:00 -2,9 C 84 % 1035,7 hPa 0,0 l/m 0,0 km/h N -5,2 C -2,9 C 2,8 km/h
22.12.2016 13:00 -2,7 C 84 % 1035,5 hPa 0,0 l/m 0,0 km/h N -5,0 C -2,7 C 1,2 km/h
22.12.2016 14:00 -2,7 C 84 % 1035,7 hPa 0,0 l/m 0,1 km/h N -5,0 C -2,7 C 3,2 km/h
22.12.2016 15:00 -2,8 C 85 % 1036,0 hPa 0,0 l/m 0,0 km/h N -5,0 C -2,8 C 0,8 km/h
22.12.2016 16:00 -2,8 C 85 % 1036,1 hPa 0,0 l/m 0,0 km/h N -5,0 C -2,8 C 1,2 km/h
22.12.2016 17:00 -2,8 C 85 % 1036,1 hPa 0,0 l/m 0,4 km/h N -5,0 C -2,8 C 3,2 km/h
22.12.2016 18:00 -3,0 C 85 % 1036,1 hPa 0,0 l/m 0,7 km/h N -5,1 C -3,0 C 3,6 km/h
22.12.2016 19:00 -2,9 C 85 % 1036,3 hPa 0,0 l/m 0,5 km/h N -5,1 C -2,9 C 4,4 km/h
22.12.2016 20:00 -3,0 C 85 % 1036,3 hPa 0,0 l/m 0,5 km/h N -5,2 C -3,0 C 3,6 km/h
22.12.2016 21:00 -3,1 C 85 % 1036,3 hPa 0,0 l/m 0,2 km/h N -5,3 C -3,1 C 2,4 km/h
22.12.2016 22:00 -3,0 C 85 % 1036,3 hPa 0,0 l/m 0,3 km/h N -5,2 C -3,0 C 3,6 km/h
22.12.2016 23:00 -3,0 C 85 % 1036,2 hPa 0,0 l/m 0,1 km/h N -5,2 C -3,0 C 1,2 km/h
23.12.2016 00:00 -2,9 C 85 % 1036,0 hPa 0,0 l/m 0,0 km/h N -5,2 C -2,9 C 0,8 km/h
23.12.2016 01:00 -2,9 C 85 % 1036,0 hPa 0,0 l/m 0,0 km/h N -5,1 C -2,9 C 0,4 km/h
23.12.2016 02:00 -2,9 C 85 % 1036,3 hPa 0,0 l/m 0,0 km/h N -5,0 C -2,9 C 0,0 km/h
23.12.2016 03:00 -2,8 C 85 % 1036,3 hPa 0,0 l/m 0,0 km/h N -5,0 C -2,8 C 0,0 km/h
23.12.2016 04:00 -2,7 C 84 % 1036,1 hPa 0,0 l/m 0,0 km/h N -5,0 C -2,7 C 1,2 km/h
23.12.2016 05:00 -2,7 C 84 % 1036,2 hPa 0,0 l/m 0,0 km/h N -5,0 C -2,7 C 0,8 km/h
23.12.2016 06:00 -2,8 C 85 % 1036,4 hPa 0,0 l/m 0,1 km/h N -5,0 C -2,8 C 3,2 km/h
23.12.2016 07:00 -2,9 C 84 % 1036,7 hPa 0,0 l/m 0,0 km/h N -5,2 C -2,9 C 1,6 km/h
23.12.2016 08:00 -2,9 C 85 % 1037,5 hPa 0,0 l/m 0,0 km/h N -5,1 C -2,9 C 0,8 km/h
23.12.2016 09:00 -2,3 C 84 % 1038,0 hPa 0,0 l/m 0,4 km/h N -4,5 C -2,3 C 3,2 km/h
23.12.2016 10:00 -1,2 C 84 % 1037,9 hPa 0,0 l/m 0,0 km/h N -3,5 C -1,2 C 0,0 km/h
23.12.2016 11:00 -0,6 C 84 % 1037,5 hPa 0,0 l/m 0,0 km/h N -3,0 C -0,6 C 2,0 km/h
23.12.2016 12:00 0,2 C 84 % 1036,9 hPa 0,3 l/m 0,0 km/h N -2,2 C 0,2 C 0,8 km/h
23.12.2016 13:00 1,6 C 84 % 1036,4 hPa 0,0 l/m 0,8 km/h N -0,8 C 1,6 C 6,4 km/h
23.12.2016 14:00 2,2 C 84 % 1036,3 hPa 0,0 l/m 0,0 km/h N -0,2 C 2,2 C 0,4 km/h
23.12.2016 15:00 1,4 C 84 % 1036,2 hPa 0,0 l/m 0,0 km/h N -1,1 C 1,4 C 0,0 km/h
23.12.2016 16:00 1,1 C 84 % 1036,2 hPa 0,0 l/m 0,0 km/h N -1,3 C 1,1 C 0,4 km/h
23.12.2016 17:00 0,7 C 84 % 1036,2 hPa 0,0 l/m 0,0 km/h N -1,7 C 0,7 C 0,4 km/h
23.12.2016 18:00 0,3 C 84 % 1036,3 hPa 0,0 l/m 0,0 km/h N -2,1 C 0,3 C 0,4 km/h
23.12.2016 19:00 0,1 C 84 % 1036,3 hPa 0,0 l/m 0,0 km/h N -2,2 C 0,1 C 0,0 km/h
23.12.2016 20:00 0,1 C 84 % 1035,9 hPa 0,0 l/m 0,0 km/h N -2,3 C 0,1 C 0,4 km/h
23.12.2016 21:00 0,1 C 84 % 1035,6 hPa 0,0 l/m 0,0 km/h N -2,3 C 0,1 C 0,8 km/h
23.12.2016 22:00 0,3 C 84 % 1035,0 hPa 0,0 l/m 0,0 km/h N -2,1 C 0,3 C 1,2 km/h
23.12.2016 23:00 0,4 C 84 % 1034,4 hPa 0,0 l/m 0,2 km/h N -2,0 C 0,4 C 2,8 km/h
24.12.2016 00:00 0,4 C 84 % 1033,7 hPa 0,3 l/m 0,0 km/h N -2,0 C 0,4 C 0,4 km/h
24.12.2016 01:00 0,4 C 84 % 1033,1 hPa 0,0 l/m 0,0 km/h N -2,0 C 0,4 C 0,4 km/h
24.12.2016 02:00 0,4 C 84 % 1032,6 hPa 0,0 l/m 0,0 km/h N -2,0 C 0,4 C 0,8 km/h
24.12.2016 03:00 0,3 C 84 % 1032,0 hPa 0,0 l/m 0,0 km/h N -2,1 C 0,3 C 1,6 km/h
24.12.2016 04:00 0,0 C 84 % 1031,7 hPa 0,0 l/m 0,0 km/h N -2,4 C 0,0 C 0,4 km/h
24.12.2016 05:00 -0,3 C 84 % 1031,6 hPa 0,0 l/m 0,0 km/h N -2,7 C -0,3 C 0,0 km/h
24.12.2016 06:00 -0,3 C 84 % 1031,6 hPa 0,0 l/m 0,0 km/h N -2,7 C -0,3 C 0,0 km/h
24.12.2016 07:00 -0,3 C 84 % 1031,6 hPa 0,0 l/m 0,0 km/h N -2,7 C -0,3 C 0,0 km/h
24.12.2016 08:00 -0,3 C 84 % 1031,2 hPa 0,0 l/m 0,0 km/h N -2,7 C -0,3 C 0,8 km/h
24.12.2016 09:00 0,0 C 84 % 1031,1 hPa 0,0 l/m 0,1 km/h N -2,3 C 0,0 C 3,2 km/h
24.12.2016 10:00 0,4 C 84 % 1031,3 hPa 0,0 l/m 0,0 km/h N -2,0 C 0,4 C 0,8 km/h
24.12.2016 11:00 1,1 C 84 % 1030,4 hPa 0,0 l/m 0,1 km/h N -1,3 C 1,1 C 2,8 km/h
24.12.2016 12:00 1,7 C 84 % 1029,5 hPa 0,0 l/m 1,1 km/h N -0,7 C 1,7 C 6,8 km/h
24.12.2016 13:00 1,8 C 84 % 1029,0 hPa 0,0 l/m 1,8 km/h N -0,6 C 1,8 C 8,1 km/h
24.12.2016 14:00 1,6 C 84 % 1028,4 hPa 0,0 l/m 0,6 km/h N -0,9 C 1,6 C 6,0 km/h
24.12.2016 15:00 1,3 C 84 % 1027,9 hPa 0,0 l/m 1,4 km/h N -1,1 C 1,3 C 9,3 km/h
24.12.2016 16:00 1,5 C 84 % 1028,1 hPa 0,0 l/m 1,3 km/h N -0,9 C 1,5 C 7,3 km/h
24.12.2016 17:00 1,7 C 84 % 1027,8 hPa 0,0 l/m 0,0 km/h N -0,7 C 1,7 C 1,2 km/h
24.12.2016 18:00 3,0 C 84 % 1027,7 hPa 0,0 l/m 3,2 km/h N 0,5 C 2,9 C 15,7 km/h
24.12.2016 19:00 7,3 C 83 % 1027,1 hPa 0,0 l/m 7,0 km/h N 4,6 C 6,6 C 25,0 km/h
24.12.2016 20:00 7,8 C 80 % 1027,2 hPa 0,0 l/m 8,3 km/h N 4,6 C 6,2 C 22,9 km/h
24.12.2016 21:00 7,7 C 79 % 1026,9 hPa 0,0 l/m 5,0 km/h N 4,2 C 7,7 C 20,9 km/h
24.12.2016 22:00 7,5 C 75 % 1026,1 hPa 0,0 l/m 5,2 km/h N 3,4 C 7,5 C 25,3 km/h
24.12.2016 23:00 7,8 C 71 % 1025,6 hPa 0,0 l/m 11,2 km/h N 2,9 C 4,4 C 31,8 km/h
25.12.2016 00:00 8,0 C 67 % 1025,1 hPa 0,0 l/m 15,9 km/h N 2,2 C 2,3 C 34,6 km/h
25.12.2016 01:00 7,7 C 71 % 1025,2 hPa 0,3 l/m 17,2 km/h N 2,7 C 1,5 C 41,0 km/h
25.12.2016 02:00 7,6 C 73 % 1025,2 hPa 0,0 l/m 15,0 km/h N 3,1 C 2,3 C 38,6 km/h
25.12.2016 03:00 7,8 C 70 % 1025,2 hPa 0,0 l/m 14,1 km/h N 2,6 C 2,8 C 35,8 km/h
25.12.2016 04:00 7,6 C 70 % 1025,1 hPa 0,0 l/m 12,4 km/h N 2,5 C 3,5 C 35,0 km/h
25.12.2016 05:00 7,1 C 75 % 1025,1 hPa 0,0 l/m 16,4 km/h N 2,9 C 1,0 C 42,3 km/h
25.12.2016 06:00 6,4 C 78 % 1024,9 hPa 0,3 l/m 11,7 km/h N 2,8 C 2,6 C 34,6 km/h
25.12.2016 07:00 6,8 C 76 % 1024,8 hPa 0,0 l/m 11,3 km/h N 2,8 C 3,2 C 34,2 km/h
25.12.2016 08:00 6,6 C 77 % 1024,8 hPa 0,3 l/m 10,4 km/h N 2,9 C 3,5 C 34,6 km/h
25.12.2016 09:00 6,6 C 78 % 1025,0 hPa 0,0 l/m 12,5 km/h N 2,9 C 2,3 C 40,2 km/h
25.12.2016 10:00 7,1 C 75 % 1025,0 hPa 0,0 l/m 13,6 km/h N 3,0 C 2,3 C 40,6 km/h
25.12.2016 11:00 6,9 C 78 % 1024,4 hPa 0,8 l/m 14,5 km/h N 3,3 C 1,7 C 38,6 km/h
25.12.2016 12:00 7,9 C 74 % 1023,5 hPa 0,3 l/m 15,2 km/h N 3,6 C 2,5 C 39,4 km/h
25.12.2016 13:00 8,4 C 72 % 1023,4 hPa 0,0 l/m 17,0 km/h N 3,7 C 2,5 C 39,8 km/h
25.12.2016 14:00 8,4 C 72 % 1023,1 hPa 0,0 l/m 16,2 km/h N 3,7 C 2,7 C 39,0 km/h
25.12.2016 15:00 8,6 C 72 % 1022,8 hPa 0,0 l/m 17,8 km/h N 3,8 C 2,2 C 43,0 km/h
25.12.2016 16:00 8,6 C 73 % 1022,8 hPa 0,0 l/m 17,0 km/h N 3,9 C 2,6 C 39,8 km/h
25.12.2016 17:00 8,4 C 75 % 1022,8 hPa 0,0 l/m 16,7 km/h N 4,2 C 2,5 C 38,2 km/h
25.12.2016 18:00 9,1 C 72 % 1022,7 hPa 0,0 l/m 16,1 km/h N 4,2 C 3,6 C 39,0 km/h
25.12.2016 19:00 9,6 C 70 % 1023,1 hPa 0,0 l/m 17,3 km/h N 4,3 C 3,7 C 40,2 km/h
25.12.2016 20:00 9,4 C 71 % 1023,3 hPa 0,0 l/m 14,0 km/h N 4,4 C 4,9 C 37,8 km/h
25.12.2016 21:00 9,6 C 71 % 1023,8 hPa 0,0 l/m 11,6 km/h N 4,7 C 6,3 C 31,8 km/h
25.12.2016 22:00 9,6 C 73 % 1024,0 hPa 0,0 l/m 10,3 km/h N 4,9 C 7,0 C 26,5 km/h
25.12.2016 23:00 9,9 C 73 % 1024,2 hPa 0,0 l/m 9,3 km/h N 5,3 C 7,9 C 28,2 km/h
Min-Datum _ 21.12.16 25.12.16 25.12.16 - 19.12.16 - 21.12.16 21.12.16 19.12.16
_ Min-Zeit 06:15 00:15 16:00 - 00:00 - 02:30 02:30 00:15
Minimum _ -3,8 C 66 % 1022,5 hPa - 0,0 km/h - -6,0 C -3,7 C 0,0 km/h
Max-Datum _ 25.12.16 22.12.16 23.12.16 25.12.16 25.12.16 - 25.12.16 25.12.16 25.12.16
_ Max-Zeit 23:45 13:45 09:00 11:30 13:00 - 23:45 23:30 01:45
Maximum _ 10,0 C 85 % 1038,2 hPa 0,8 l/m 20,6 km/h
N
- 5,6 C 8,7 C 53,1 km/h
N
Durchschnitt _ 0,1 C 82 % 1032,4 hPa #2,9 l/m 2,7 km/h N -2,6 C -0,6 C 10,1 km/h